Time;durP1;ratioP1;P1;durP2;ratioP2;P2;SDS_P1;SDS_P2;PMS_P1;PMS_P2;Temp;Humidity;BMP_temperature;BMP_pressure;BME280_temperature;BME280_humidity;BME280_pressure;Samples;Min_cycle;Max_cycle;Signal;HPM_P1;HPM_P2
2023/06/16 00:01:31;;;;;;;10.40;7.60;;;;;;;10.30;100.00;96316.59;7396084;19;20916;-75
2023/06/16 00:03:59;;;;;;;15.23;8.67;;;;;;;10.04;100.00;96272.66;7394682;19;20504;-74
2023/06/16 00:06:29;;;;;;;12.17;9.03;;;;;;;10.19;100.00;96307.50;7395584;19;20392;-74
2023/06/16 00:08:58;;;;;;;11.90;9.77;;;;;;;10.18;100.00;96305.94;7393927;19;20377;-75
2023/06/16 00:11:29;;;;;;;10.40;9.30;;;;;;;10.13;100.00;96304.25;7395791;19;20783;-74
2023/06/16 00:13:57;;;;;;;11.60;10.40;;;;;;;9.96;100.00;96288.56;7394170;19;20423;-75
2023/06/16 00:16:26;;;;;;;10.07;9.07;;;;;;;9.91;100.00;96301.97;7396029;19;20475;-74
2023/06/16 00:18:57;;;;;;;11.33;9.37;;;;;;;9.77;100.00;96315.41;7394632;19;20400;-74
2023/06/16 00:21:37;;;;;;;9.03;8.13;;;;;;;9.83;100.00;96300.16;7396531;19;20720;-74
2023/06/16 00:24:06;;;;;;;10.03;8.97;;;;;;;10.06;100.00;96304.03;7394395;19;20424;-74
2023/06/16 00:26:33;;;;;;;11.43;8.53;;;;;;;9.98;100.00;96304.84;7396599;19;20931;-74
2023/06/16 00:29:02;;;;;;;9.17;8.10;;;;;;;9.99;100.00;96311.66;7395257;19;20396;-74
2023/06/16 00:31:32;;;;;;;13.00;9.10;;;;;;;10.06;100.00;96296.88;7395113;19;20392;-74
2023/06/16 00:34:00;;;;;;;11.47;9.37;;;;;;;10.14;100.00;96307.66;7411063;19;20419;-73
2023/06/16 00:36:27;;;;;;;15.07;11.60;;;;;;;9.99;100.00;96290.53;7429124;19;20381;-73
2023/06/16 00:38:54;;;;;;;9.57;8.60;;;;;;;10.07;100.00;96303.69;7428846;19;20367;-73
2023/06/16 00:41:21;;;;;;;12.27;9.97;;;;;;;10.05;100.00;96276.06;7428969;19;20479;-74
2023/06/16 00:43:48;;;;;;;13.27;10.33;;;;;;;9.58;100.00;96260.41;7431626;19;20415;-74
2023/06/16 00:46:25;;;;;;;9.03;8.30;;;;;;;9.72;100.00;96289.19;7430312;19;20404;-74
2023/06/16 00:48:55;;;;;;;10.70;9.60;;;;;;;9.68;100.00;96293.56;7422605;19;20444;-74
2023/06/16 00:51:27;;;;;;;9.60;8.70;;;;;;;9.56;100.00;96294.25;7408594;19;20444;-74
2023/06/16 00:53:54;;;;;;;10.80;9.80;;;;;;;9.16;100.00;96225.25;7400334;19;20821;-74
2023/06/16 00:56:23;;;;;;;9.43;8.33;;;;;;;9.15;100.00;96258.00;7398290;19;20387;-74
2023/06/16 00:58:53;;;;;;;10.17;9.00;;;;;;;9.21;100.00;96240.91;7399161;19;20372;-74
2023/06/16 01:01:20;;;;;;;9.43;8.53;;;;;;;9.54;100.00;96277.97;7397558;19;20480;-74
2023/06/16 01:03:50;;;;;;;9.73;8.90;;;;;;;9.53;100.00;96281.72;7398246;19;20419;-74
2023/06/16 01:06:30;;;;;;;13.77;9.27;;;;;;;9.61;100.00;96299.34;7396924;19;20377;-74
2023/06/16 01:09:07;;;;;;;11.50;8.80;;;;;;;9.46;100.00;96295.38;7395521;19;20396;-74
2023/06/16 01:11:47;;;;;;;10.37;9.37;;;;;;;9.51;100.00;96299.72;7398861;19;20340;-74
2023/06/16 01:14:32;;;;;;;9.10;8.20;;;;;;;9.28;100.00;96256.25;7395677;19;20424;-74
2023/06/16 01:17:02;;;;;;;14.60;9.10;;;;;;;9.56;100.00;96299.53;7396907;19;20373;-74
2023/06/16 01:19:37;;;;;;;9.93;9.03;;;;;;;9.53;100.00;96299.41;7396877;19;20388;-74
2023/06/16 01:22:18;;;;;;;13.10;9.20;;;;;;;9.34;100.00;96276.06;7402854;19;20380;-74
2023/06/16 01:24:47;;;;;;;8.93;8.03;;;;;;;9.51;100.00;96273.34;7402447;19;20986;-74
2023/06/16 01:27:21;;;;;;;9.97;7.80;;;;;;;9.40;100.00;96275.56;7402219;19;20368;-74
2023/06/16 01:29:51;;;;;;;8.90;7.63;;;;;;;9.44;100.00;96297.59;7404844;19;20364;-74
2023/06/16 01:32:20;;;;;;;9.27;7.80;;;;;;;9.38;100.00;96269.06;7403764;19;20456;-74
2023/06/16 01:34:48;;;;;;;7.90;7.20;;;;;;;9.44;100.00;96281.75;7402689;19;20428;-74
2023/06/16 01:37:15;;;;;;;14.03;7.67;;;;;;;9.39;100.00;96281.16;7402935;19;20348;-74
2023/06/16 01:39:44;;;;;;;12.03;8.57;;;;;;;9.47;100.00;96294.31;7401940;19;20384;-74
2023/06/16 01:42:13;;;;;;;12.90;9.10;;;;;;;9.40;100.00;96257.09;7404486;19;20373;-74
2023/06/16 01:44:42;;;;;;;8.83;7.17;;;;;;;9.34;100.00;96284.75;7400450;19;20436;-74
2023/06/16 01:47:09;;;;;;;9.20;8.27;;;;;;;9.02;100.00;96269.56;7403039;19;20393;-74
2023/06/16 01:49:39;;;;;;;10.13;9.13;;;;;;;8.40;100.00;96248.97;7401816;19;20793;-74
2023/06/16 01:52:07;;;;;;;13.83;9.47;;;;;;;8.70;100.00;96274.34;7403412;19;20404;-74
2023/06/16 01:54:34;;;;;;;9.10;8.10;;;;;;;8.81;100.00;96251.81;7402060;19;20437;-74
2023/06/16 01:57:04;;;;;;;11.63;7.50;;;;;;;9.10;100.00;96284.56;7403664;19;20463;-74
2023/06/16 01:59:32;;;;;;;14.07;7.77;;;;;;;9.08;100.00;96268.28;7401596;19;20403;-74
2023/06/16 02:02:05;;;;;;;8.67;7.80;;;;;;;9.25;100.00;96278.75;7403363;19;20361;-74
2023/06/16 02:04:35;;;;;;;11.70;8.17;;;;;;;9.32;100.00;96281.66;7400476;19;20428;-74
2023/06/16 02:07:09;;;;;;;8.57;7.57;;;;;;;8.94;100.00;96271.13;7404848;19;20375;-74
2023/06/16 02:09:38;;;;;;;8.83;7.47;;;;;;;8.41;100.00;96250.50;7403650;19;20371;-74
2023/06/16 02:12:11;;;;;;;7.80;7.10;;;;;;;8.82;100.00;96274.44;7401142;19;20391;-74
2023/06/16 02:14:39;;;;;;;8.77;7.67;;;;;;;8.73;100.00;96273.69;7401193;19;20428;-74
2023/06/16 02:17:08;;;;;;;17.10;8.80;;;;;;;8.47;100.00;96236.88;7401042;19;20373;-74
2023/06/16 02:19:38;;;;;;;8.20;7.43;;;;;;;8.62;100.00;96271.72;7401597;19;20404;-74
2023/06/16 02:22:05;;;;;;;9.57;7.40;;;;;;;8.08;100.00;96244.97;7400196;19;20986;-74
2023/06/16 02:24:32;;;;;;;9.07;8.17;;;;;;;8.51;100.00;96253.59;7401306;19;20436;-74
2023/06/16 02:27:00;;;;;;;10.57;8.10;;;;;;;8.46;100.00;96240.59;7400173;19;20375;-74
2023/06/16 02:29:26;;;;;;;8.43;7.73;;;;;;;8.85;100.00;96270.41;7402042;19;20384;-74
2023/06/16 02:31:53;;;;;;;8.13;6.97;;;;;;;8.74;100.00;96271.84;7399803;19;20439;-74
2023/06/16 02:34:20;;;;;;;7.77;6.97;;;;;;;7.99;100.00;96242.34;7401109;19;20424;-74
2023/06/16 02:36:50;;;;;;;10.13;8.17;;;;;;;7.98;100.00;96256.59;7400191;19;20376;-74
2023/06/16 02:39:18;;;;;;;8.60;7.80;;;;;;;7.77;100.00;96245.16;7401598;19;20971;-74
2023/06/16 02:41:46;;;;;;;17.20;8.37;;;;;;;7.99;100.00;96269.44;7400611;19;20372;-74
2023/06/16 02:44:13;;;;;;;10.40;7.80;;;;;;;8.33;100.00;96275.78;7401708;19;20417;-74
2023/06/16 02:46:40;;;;;;;9.47;8.57;;;;;;;8.44;100.00;96270.97;7400506;19;20416;-75
2023/06/16 02:49:07;;;;;;;10.87;8.30;;;;;;;8.36;100.00;96271.75;7399581;19;20376;-74
2023/06/16 02:51:34;;;;;;;10.77;8.00;;;;;;;8.13;100.00;96248.22;7400024;19;20909;-74
2023/06/16 02:54:02;;;;;;;10.53;9.43;;;;;;;8.14;100.00;96256.88;7400589;19;20432;-74
2023/06/16 02:56:29;;;;;;;17.30;11.43;;;;;;;8.07;100.00;96249.47;7399993;19;20901;-74
2023/06/16 02:58:57;;;;;;;13.60;10.17;;;;;;;8.24;100.00;96275.00;7402304;19;20860;-74
2023/06/16 03:01:29;;;;;;;12.27;9.37;;;;;;;8.29;100.00;96251.16;7399664;19;20389;-74
2023/06/16 03:04:13;;;;;;;10.30;9.20;;;;;;;7.70;100.00;96241.09;7397840;19;20431;-74
2023/06/16 03:06:51;;;;;;;10.67;9.57;;;;;;;7.87;100.00;96266.66;7400888;19;20349;-74
2023/06/16 03:09:38;;;;;;;10.73;9.63;;;;;;;7.76;100.00;96262.81;7399397;19;20920;-74
2023/06/16 03:12:08;;;;;;;10.57;9.63;;;;;;;7.61;100.00;96236.91;7398213;19;20419;-75
2023/06/16 03:14:41;;;;;;;11.40;10.10;;;;;;;7.96;100.00;96248.22;7398756;19;20959;-74
2023/06/16 03:17:20;;;;;;;16.20;10.53;;;;;;;8.05;100.00;96251.63;7398898;19;20412;-74
2023/06/16 03:19:49;;;;;;;10.53;9.63;;;;;;;8.22;100.00;96266.66;7399895;19;20739;-74
2023/06/16 03:22:21;;;;;;;13.37;9.37;;;;;;;7.93;100.00;96254.13;7399143;19;20373;-74
2023/06/16 03:24:50;;;;;;;8.90;8.00;;;;;;;8.10;100.00;96269.13;7399285;19;20436;-74
2023/06/16 03:27:17;;;;;;;10.80;6.90;;;;;;;7.91;100.00;96270.22;7398181;19;20397;-74
2023/06/16 03:29:50;;;;;;;13.83;8.23;;;;;;;7.56;100.00;96232.59;7397796;19;20416;-74
2023/06/16 03:32:18;;;;;;;9.30;7.00;;;;;;;7.84;100.00;96255.97;7399152;19;20417;-74
2023/06/16 03:34:46;;;;;;;11.37;8.10;;;;;;;7.67;100.00;96238.31;7395756;19;20774;-74
2023/06/16 03:37:13;;;;;;;10.47;7.63;;;;;;;7.58;100.00;96245.44;7403860;19;20489;-74
2023/06/16 03:39:40;;;;;;;13.00;6.93;;;;;;;7.80;100.00;96260.31;7397228;19;20920;-74
2023/06/16 03:42:07;;;;;;;10.87;8.03;;;;;;;8.08;100.00;96273.94;7397540;19;20392;-74
2023/06/16 03:44:35;;;;;;;8.27;7.47;;;;;;;8.23;100.00;96268.19;7396149;19;20456;-74
2023/06/16 03:47:03;;;;;;;16.43;8.80;;;;;;;8.38;100.00;96259.81;7399173;19;20373;-74
2023/06/16 03:49:32;;;;;;;10.57;8.30;;;;;;;8.08;100.00;96214.16;7395016;19;20815;-74
2023/06/16 03:51:59;;;;;;;10.93;8.80;;;;;;;8.38;100.00;96265.09;7397612;19;20908;-74
2023/06/16 03:54:27;;;;;;;12.00;8.53;;;;;;;8.48;100.00;96285.06;7396246;19;20841;-74
2023/06/16 03:56:55;;;;;;;8.53;7.83;;;;;;;8.23;100.00;96255.78;7398634;19;20388;-74
2023/06/16 03:59:23;;;;;;;7.53;7.03;;;;;;;7.93;100.00;96265.44;7397122;19;20377;-74
2023/06/16 04:01:51;;;;;;;10.47;7.57;;;;;;;8.15;100.00;96259.22;7400531;19;20942;-74
2023/06/16 04:04:20;;;;;;;10.93;7.10;;;;;;;8.55;100.00;96280.13;7396657;19;20416;-74
2023/06/16 04:06:48;;;;;;;8.07;7.20;;;;;;;8.09;100.00;96251.78;7399108;19;20373;-74
2023/06/16 04:09:15;;;;;;;8.53;7.63;;;;;;;7.91;100.00;96238.66;7395896;19;20409;-74
2023/06/16 04:11:42;;;;;;;9.70;7.20;;;;;;;8.55;100.00;96267.72;7398866;19;20468;-74
2023/06/16 04:14:11;;;;;;;11.13;9.37;;;;;;;8.77;100.00;96258.78;7397051;19;21011;-74
2023/06/16 04:16:40;;;;;;;8.57;7.77;;;;;;;8.29;100.00;96241.38;7400849;19;20349;-74
2023/06/16 04:19:10;;;;;;;12.27;8.13;;;;;;;8.55;100.00;96282.75;7394117;19;20737;-74
2023/06/16 04:21:41;;;;;;;8.63;7.83;;;;;;;8.44;100.00;96260.44;7396399;19;20375;-74
2023/06/16 04:24:10;;;;;;;9.77;8.90;;;;;;;8.32;100.00;96265.56;7396796;19;20443;-74
2023/06/16 04:26:41;;;;;;;9.20;8.40;;;;;;;8.46;100.00;96285.38;7396291;19;20408;-74
2023/06/16 04:29:14;;;;;;;9.97;9.07;;;;;;;8.34;100.00;96252.84;7396129;19;20384;-74
2023/06/16 04:31:43;;;;;;;8.33;7.60;;;;;;;8.57;100.00;96278.72;7396412;19;20400;-74
2023/06/16 04:34:10;;;;;;;11.53;8.30;;;;;;;8.33;100.00;96248.66;7397239;19;20427;-74
2023/06/16 04:36:44;;;;;;;11.33;10.33;;;;;;;8.27;100.00;96256.72;7396349;19;20452;-74
2023/06/16 04:39:28;;;;;;;11.47;10.47;;;;;;;8.43;100.00;96275.47;7394932;19;20368;-74
2023/06/16 04:41:56;;;;;;;10.37;9.37;;;;;;;8.79;100.00;96279.56;7396898;19;20407;-74
2023/06/16 04:44:28;;;;;;;11.30;10.30;;;;;;;8.81;100.00;96254.44;7394362;19;20435;-74
2023/06/16 04:46:56;;;;;;;9.80;8.73;;;;;;;8.98;100.00;96281.84;7397182;19;20375;-74
2023/06/16 04:49:24;;;;;;;11.17;10.20;;;;;;;8.63;100.00;96215.28;7393648;19;20372;-74
2023/06/16 04:51:51;;;;;;;9.77;8.77;;;;;;;8.67;100.00;96253.09;7395909;19;20398;-74
2023/06/16 04:54:19;;;;;;;9.83;9.00;;;;;;;8.45;100.00;96251.47;7391642;19;20440;-74
2023/06/16 04:56:46;;;;;;;11.17;10.27;;;;;;;8.81;100.00;96256.28;7396515;19;20377;-74
2023/06/16 04:59:14;;;;;;;11.17;10.13;;;;;;;8.56;100.00;96268.47;7394934;19;20411;-74
2023/06/16 05:01:40;;;;;;;10.43;9.33;;;;;;;8.38;100.00;96248.50;7398175;19;20380;-74
2023/06/16 05:04:08;;;;;;;11.90;10.73;;;;;;;8.78;100.00;96260.34;7394563;19;20433;-74
2023/06/16 05:06:36;;;;;;;10.40;9.50;;;;;;;8.97;100.00;96262.59;7396322;19;20395;-74
2023/06/16 05:09:04;;;;;;;10.43;9.53;;;;;;;9.22;100.00;96249.63;7393699;19;20405;-74
2023/06/16 05:11:31;;;;;;;11.77;10.60;;;;;;;9.15;100.00;96215.81;7395629;19;20396;-74
2023/06/16 05:13:58;;;;;;;14.90;13.30;;;;;;;9.33;100.00;96243.63;7394133;19;20404;-74
2023/06/16 05:16:26;;;;;;;15.20;13.70;;;;;;;9.37;100.00;96265.66;7395977;19;20389;-74
2023/06/16 05:18:54;;;;;;;16.77;14.60;;;;;;;9.59;100.00;96272.50;7394478;19;20901;-74
2023/06/16 05:21:26;;;;;;;20.53;18.57;;;;;;;9.48;100.00;96266.84;7395999;19;20389;-74
2023/06/16 05:23:57;;;;;;;23.47;21.17;;;;;;;9.77;100.00;96276.59;7394440;19;20498;-74
2023/06/16 05:26:25;;;;;;;25.73;23.10;;;;;;;9.40;100.00;96266.88;7396474;19;20956;-74
2023/06/16 05:28:52;;;;;;;16.47;14.90;;;;;;;9.55;100.00;96284.03;7393759;19;20718;-74
2023/06/16 05:31:21;;;;;;;13.87;12.67;;;;;;;9.29;100.00;96292.84;7395549;19;20424;-75
2023/06/16 05:33:49;;;;;;;13.67;12.37;;;;;;;9.29;100.00;96297.34;7394586;19;20408;-74
2023/06/16 05:36:16;;;;;;;12.07;11.00;;;;;;;9.50;100.00;96281.59;7396717;19;20402;-75
2023/06/16 05:38:44;;;;;;;14.23;12.87;;;;;;;9.72;100.00;96297.09;7395284;19;20392;-75
2023/06/16 05:41:11;;;;;;;13.57;12.47;;;;;;;9.75;100.00;96285.94;7397184;19;20394;-75
2023/06/16 05:43:42;;;;;;;14.37;12.87;;;;;;;9.75;100.00;96278.78;7394859;19;20947;-75
2023/06/16 05:46:10;;;;;;;17.93;16.33;;;;;;;9.61;100.00;96269.53;7393951;19;20412;-75
2023/06/16 05:48:38;;;;;;;16.47;14.80;;;;;;;9.24;100.00;96232.38;7394750;19;20364;-75
2023/06/16 05:51:09;;;;;;;17.67;15.90;;;;;;;9.43;100.00;96277.56;7396334;19;20405;-75
2023/06/16 05:53:36;;;;;;;16.63;15.13;;;;;;;9.69;100.00;96287.97;7394892;19;20900;-73
2023/06/16 05:56:03;;;;;;;18.00;16.40;;;;;;;10.08;100.00;96312.38;7394626;19;20368;-73
2023/06/16 05:58:35;;;;;;;17.80;16.17;;;;;;;10.12;100.00;96309.88;7395003;19;20947;-72
2023/06/16 06:01:06;;;;;;;17.57;16.10;;;;;;;9.96;100.00;96299.88;7393796;19;20368;-73
2023/06/16 06:03:35;;;;;;;18.60;16.60;;;;;;;10.12;100.00;96289.50;7394850;19;20926;-72
2023/06/16 06:06:04;;;;;;;17.40;15.60;;;;;;;10.56;100.00;96306.56;7396806;19;20372;-72
2023/06/16 06:08:31;;;;;;;18.13;16.53;;;;;;;10.74;100.00;96301.88;7397837;19;20598;-72
2023/06/16 06:10:59;;;;;;;16.77;15.17;;;;;;;10.95;100.00;96323.75;7401322;19;20364;-73
2023/06/16 06:13:27;;;;;;;16.00;14.60;;;;;;;10.74;100.00;96306.38;7403339;19;20375;-73
2023/06/16 06:15:54;;;;;;;18.37;16.57;;;;;;;10.60;100.00;96312.75;7402870;19;20343;-73
2023/06/16 06:18:22;;;;;;;15.83;14.43;;;;;;;10.32;100.00;96301.19;7402576;19;20900;-73
2023/06/16 06:20:49;;;;;;;16.50;14.30;;;;;;;10.82;100.00;96316.13;7401426;19;20357;-74
2023/06/16 06:23:17;;;;;;;16.10;14.60;;;;;;;11.05;100.00;96329.69;7402760;19;20369;-73
2023/06/16 06:25:45;;;;;;;16.40;14.40;;;;;;;11.02;100.00;96327.72;7398818;19;20845;-73
2023/06/16 06:28:17;;;;;;;16.83;15.33;;;;;;;11.11;100.00;96331.81;7399159;19;20381;-73
2023/06/16 06:30:44;;;;;;;17.20;15.70;;;;;;;10.85;100.00;96310.16;7400912;19;20455;-73
2023/06/16 06:33:11;;;;;;;15.37;13.97;;;;;;;10.94;100.00;96338.03;7399688;19;20380;-73
2023/06/16 06:35:38;;;;;;;15.70;14.30;;;;;;;11.16;100.00;96344.06;7400241;19;20480;-73
2023/06/16 06:38:05;;;;;;;15.37;13.20;;;;;;;10.95;100.00;96315.81;7397675;19;20364;-73
2023/06/16 06:40:35;;;;;;;15.60;13.97;;;;;;;10.87;100.00;96347.63;7401082;19;20412;-73
2023/06/16 06:43:02;;;;;;;15.10;13.67;;;;;;;10.92;100.00;96320.97;7399349;19;20424;-73
2023/06/16 06:45:40;;;;;;;13.47;12.37;;;;;;;11.17;100.00;96332.38;7399192;19;20412;-73
2023/06/16 06:48:07;;;;;;;17.63;12.93;;;;;;;11.15;100.00;96340.63;7401559;19;20349;-73
2023/06/16 06:50:34;;;;;;;12.50;11.40;;;;;;;11.25;100.00;96336.78;7398671;19;20381;-73
2023/06/16 06:53:01;;;;;;;14.60;13.37;;;;;;;11.57;100.00;96348.38;7397261;19;20368;-73
2023/06/16 06:55:28;;;;;;;14.87;13.57;;;;;;;11.52;100.00;96343.31;7398834;19;20743;-73
2023/06/16 06:57:55;;;;;;;15.07;13.67;;;;;;;11.42;100.00;96331.28;7400962;19;20344;-73
2023/06/16 07:00:22;;;;;;;13.50;12.27;;;;;;;11.36;100.00;96315.97;7401394;19;20376;-73
2023/06/16 07:02:49;;;;;;;14.20;13.00;;;;;;;11.27;100.00;96299.41;7399209;19;20382;-73
2023/06/16 07:05:16;;;;;;;15.10;13.50;;;;;;;11.55;100.00;96327.53;7399075;19;20432;-73
2023/06/16 07:07:43;;;;;;;15.90;14.27;;;;;;;11.63;100.00;96333.81;7399602;19;20380;-73
2023/06/16 07:10:10;;;;;;;14.77;13.33;;;;;;;11.62;100.00;96310.28;7398715;19;20923;-73
2023/06/16 07:12:37;;;;;;;13.70;12.50;;;;;;;11.83;100.00;96335.56;7399455;19;20387;-73
2023/06/16 07:15:05;;;;;;;14.57;13.13;;;;;;;11.77;100.00;96331.59;7399862;19;20412;-73
2023/06/16 07:17:34;;;;;;;15.50;14.03;;;;;;;11.87;100.00;96334.91;7398239;19;20381;-73
2023/06/16 07:20:01;;;;;;;13.50;12.33;;;;;;;12.15;100.00;96335.72;7416637;19;20406;-73
2023/06/16 07:22:28;;;;;;;16.07;13.10;;;;;;;12.35;100.00;96339.31;7418949;19;20348;-73
2023/06/16 07:24:55;;;;;;;16.03;11.70;;;;;;;12.27;100.00;96322.44;7426274;19;20431;-73
2023/06/16 07:27:22;;;;;;;12.87;11.63;;;;;;;12.54;100.00;96341.34;7415237;19;20361;-74
2023/06/16 07:29:49;;;;;;;10.83;9.83;;;;;;;12.42;100.00;96313.78;7401237;19;20889;-74
2023/06/16 07:32:16;;;;;;;12.67;10.90;;;;;;;12.77;100.00;96338.94;7400907;19;20397;-73
2023/06/16 07:34:44;;;;;;;10.33;9.20;;;;;;;12.59;100.00;96302.09;7398068;19;20397;-74
2023/06/16 07:37:11;;;;;;;10.17;9.13;;;;;;;13.16;100.00;96355.84;7399671;19;20409;-73
2023/06/16 07:39:38;;;;;;;11.20;9.93;;;;;;;13.25;100.00;96341.34;7397850;19;20384;-73
2023/06/16 07:42:06;;;;;;;13.20;12.07;;;;;;;13.59;100.00;96352.34;7399811;19;20376;-73
2023/06/16 07:44:33;;;;;;;16.40;10.70;;;;;;;13.72;100.00;96345.81;7397516;19;20437;-73
2023/06/16 07:47:00;;;;;;;12.00;10.73;;;;;;;14.05;100.00;96337.44;7402193;19;20377;-73
2023/06/16 07:49:29;;;;;;;16.80;11.00;;;;;;;14.32;100.00;96346.38;7397914;19;20468;-73
2023/06/16 07:51:56;;;;;;;12.70;11.53;;;;;;;14.45;100.00;96329.16;7427605;19;20387;-75
2023/06/16 07:54:23;;;;;;;10.47;9.53;;;;;;;15.14;100.00;96337.25;7428274;19;20413;-75
2023/06/16 07:56:50;;;;;;;11.07;9.80;;;;;;;15.63;100.00;96347.97;7431131;19;20424;-75
2023/06/16 07:59:17;;;;;;;12.30;9.60;;;;;;;15.23;100.00;96332.47;7429785;19;20400;-75
2023/06/16 08:01:45;;;;;;;11.50;10.50;;;;;;;15.13;100.00;96318.97;7432828;19;20408;-75
2023/06/16 08:04:12;;;;;;;11.97;10.73;;;;;;;15.62;100.00;96348.31;7411680;19;20425;-75
2023/06/16 08:06:39;;;;;;;12.90;9.90;;;;;;;15.44;100.00;96344.59;7403788;19;20377;-75
2023/06/16 08:09:07;;;;;;;14.63;10.57;;;;;;;14.62;100.00;96288.03;7398578;19;20889;-75
2023/06/16 08:11:35;;;;;;;10.13;9.33;;;;;;;15.62;100.00;96345.66;7399885;19;20369;-75
2023/06/16 08:14:02;;;;;;;10.83;9.83;;;;;;;16.07;100.00;96349.34;7397886;19;20425;-75
2023/06/16 08:16:29;;;;;;;11.20;8.83;;;;;;;16.30;100.00;96328.69;7401016;19;20754;-75
2023/06/16 08:18:57;;;;;;;10.10;9.10;;;;;;;16.12;100.00;96333.03;7400122;19;20361;-75
2023/06/16 08:21:24;;;;;;;10.27;9.07;;;;;;;16.61;100.00;96324.84;7400170;19;20400;-75
2023/06/16 08:23:52;;;;;;;8.70;7.83;;;;;;;16.77;100.00;96313.97;7399251;19;20412;-75
2023/06/16 08:26:19;;;;;;;9.60;8.70;;;;;;;17.16;100.00;96345.66;7402763;19;20373;-75
2023/06/16 08:28:46;;;;;;;9.27;8.47;;;;;;;17.25;100.00;96306.81;7396876;19;20398;-75
2023/06/16 08:31:13;;;;;;;11.80;9.50;;;;;;;17.84;100.00;96337.03;7397753;19;20416;-75
2023/06/16 08:33:40;;;;;;;8.03;7.33;;;;;;;17.92;100.00;96343.97;7396315;19;20344;-73
2023/06/16 08:36:07;;;;;;;9.10;7.77;;;;;;;17.63;100.00;96334.97;7398534;19;20397;-72
2023/06/16 08:38:34;;;;;;;8.43;7.63;;;;;;;17.79;100.00;96309.88;7398168;19;20392;-73
2023/06/16 08:41:05;;;;;;;11.10;10.00;;;;;;;18.48;100.00;96360.69;7398397;19;20383;-74
2023/06/16 08:43:36;;;;;;;11.20;8.17;;;;;;;18.44;100.00;96336.59;7397050;19;20373;-74
2023/06/16 08:46:05;;;;;;;9.00;7.63;;;;;;;19.02;100.00;96356.31;7395558;19;20364;-74
2023/06/16 08:48:34;;;;;;;8.07;7.37;;;;;;;19.24;100.00;96354.44;7398539;19;20351;-73
2023/06/16 08:51:02;;;;;;;8.77;7.97;;;;;;;18.97;100.00;96321.84;7395751;19;20922;-74
2023/06/16 08:53:36;;;;;;;9.43;8.30;;;;;;;18.83;100.00;96335.94;7396155;19;20376;-73
2023/06/16 08:56:05;;;;;;;8.67;7.73;;;;;;;19.55;100.00;96352.94;7395023;19;20370;-73
2023/06/16 08:58:34;;;;;;;12.23;7.83;;;;;;;19.41;100.00;96313.44;7396726;19;20408;-73
2023/06/16 09:01:03;;;;;;;8.30;7.60;;;;;;;20.02;99.81;96336.38;7395406;19;20405;-73
2023/06/16 09:03:32;;;;;;;6.93;6.20;;;;;;;18.97;92.09;96298.50;7396406;19;20337;-73
2023/06/16 09:06:00;;;;;;;7.17;6.57;;;;;;;19.54;91.72;96332.59;7395146;19;20793;-73
2023/06/16 09:08:29;;;;;;;7.50;6.90;;;;;;;19.30;91.16;96334.88;7398137;19;20386;-73
2023/06/16 09:10:56;;;;;;;6.13;5.63;;;;;;;19.69;85.95;96334.16;7393671;19;20389;-73
2023/06/16 09:13:24;;;;;;;6.37;5.77;;;;;;;19.48;86.38;96324.16;7396941;19;20411;-74
2023/06/16 09:15:56;;;;;;;5.97;5.47;;;;;;;19.17;83.93;96296.97;7396458;19;20869;-73
2023/06/16 09:18:27;;;;;;;5.97;5.47;;;;;;;19.82;81.41;96321.09;7397307;19;20713;-73
2023/06/16 09:21:00;;;;;;;5.80;5.30;;;;;;;19.85;78.18;96318.41;7395733;19;20743;-73
2023/06/16 09:23:31;;;;;;;8.53;5.07;;;;;;;19.38;78.03;96295.44;7394096;19;20400;-73
2023/06/16 09:25:58;;;;;;;5.80;4.67;;;;;;;20.08;79.52;96283.84;7396671;19;20509;-73
2023/06/16 09:28:36;;;;;;;5.20;4.43;;;;;;;20.38;76.78;96304.81;7396713;19;20350;-73
2023/06/16 09:31:05;;;;;;;5.90;4.57;;;;;;;20.13;71.03;96312.19;7394547;19;20374;-73
2023/06/16 09:33:40;;;;;;;6.13;5.27;;;;;;;19.51;73.58;96252.91;7395329;19;20414;-73
2023/06/16 09:36:09;;;;;;;8.70;4.80;;;;;;;19.68;74.35;96301.19;7397359;19;20672;-73
2023/06/16 09:38:37;;;;;;;5.23;4.73;;;;;;;20.40;70.79;96274.09;7395696;19;20386;-73
2023/06/16 09:41:10;;;;;;;4.90;4.50;;;;;;;20.50;70.05;96284.06;7399746;19;20402;-73
2023/06/16 09:43:37;;;;;;;5.43;4.20;;;;;;;20.62;70.60;96305.88;7404005;19;20383;-73
2023/06/16 09:46:09;;;;;;;6.43;5.53;;;;;;;20.07;67.79;96281.53;7401171;19;20386;-73
2023/06/16 09:48:50;;;;;;;5.40;4.93;;;;;;;20.53;67.80;96310.91;7402568;19;20350;-73
2023/06/16 09:51:19;;;;;;;7.10;4.50;;;;;;;20.55;66.36;96281.72;7398940;19;20792;-73
2023/06/16 09:53:47;;;;;;;5.37;4.70;;;;;;;20.13;67.83;96279.97;7402917;19;20409;-73
2023/06/16 09:56:15;;;;;;;5.33;4.83;;;;;;;19.36;69.24;96287.75;7403090;19;20390;-74
2023/06/16 09:58:47;;;;;;;5.80;4.27;;;;;;;19.55;70.66;96259.81;7403198;19;20411;-73
2023/06/16 10:01:15;;;;;;;5.60;5.10;;;;;;;20.23;71.08;96273.03;7401650;19;20395;-73
2023/06/16 10:03:48;;;;;;;5.57;5.17;;;;;;;20.06;70.36;96277.31;7402658;19;20403;-73
2023/06/16 10:06:19;;;;;;;5.90;5.30;;;;;;;20.35;69.05;96277.97;7401663;19;20366;-73
2023/06/16 10:08:51;;;;;;;7.33;5.93;;;;;;;20.54;68.29;96272.13;7400333;19;20377;-73
2023/06/16 10:11:19;;;;;;;5.83;5.23;;;;;;;20.79;67.87;96279.28;7400959;19;20386;-73
2023/06/16 10:13:54;;;;;;;5.53;4.63;;;;;;;21.12;66.03;96259.09;7400021;19;20390;-73
2023/06/16 10:16:25;;;;;;;5.60;4.30;;;;;;;21.40;64.85;96276.97;7403378;19;20362;-73
2023/06/16 10:18:57;;;;;;;4.83;4.43;;;;;;;21.45;66.09;96279.22;7400798;19;20370;-73
2023/06/16 10:21:24;;;;;;;5.97;5.00;;;;;;;20.82;67.87;96275.81;7403608;19;20409;-73
2023/06/16 10:23:51;;;;;;;5.23;4.70;;;;;;;20.25;67.44;96255.38;7401981;19;20924;-73
2023/06/16 10:26:19;;;;;;;5.50;4.87;;;;;;;20.27;67.90;96271.09;7403398;19;20363;-73
2023/06/16 10:28:47;;;;;;;5.00;4.60;;;;;;;20.88;68.47;96282.31;7402478;19;20338;-73
2023/06/16 10:31:15;;;;;;;7.37;6.77;;;;;;;21.32;66.54;96278.16;7401526;19;20360;-73
2023/06/16 10:33:58;;;;;;;4.93;4.53;;;;;;;21.60;66.91;96269.84;7399776;19;20376;-73
2023/06/16 10:36:30;;;;;;;5.50;5.00;;;;;;;21.38;67.76;96292.75;7400661;19;20381;-73
2023/06/16 10:38:58;;;;;;;5.73;5.13;;;;;;;20.18;68.59;96289.56;7403080;19;20382;-73
2023/06/16 10:41:29;;;;;;;5.57;5.07;;;;;;;19.57;69.60;96252.16;7399243;19;20425;-73
2023/06/16 10:44:22;;;;;;;5.70;5.10;;;;;;;19.74;71.99;96285.44;7400663;19;20423;-73
2023/06/16 10:47:04;;;;;;;5.80;5.23;;;;;;;19.51;68.32;96279.72;7400571;19;20954;-73
2023/06/16 10:49:32;;;;;;;11.10;6.80;;;;;;;19.25;68.64;96268.25;7399007;19;20375;-73
2023/06/16 10:51:59;;;;;;;7.03;4.80;;;;;;;19.40;68.90;96267.09;7400709;19;20725;-73
2023/06/16 10:54:32;;;;;;;4.47;4.07;;;;;;;19.81;68.04;96277.41;7398033;19;20430;-73
2023/06/16 10:57:00;;;;;;;5.47;4.97;;;;;;;19.77;67.83;96272.03;7401152;19;20882;-73
2023/06/16 10:59:57;;;;;;;4.53;4.23;;;;;;;20.17;67.53;96277.28;7399871;19;20355;-73
2023/06/16 11:02:31;;;;;;;5.63;4.60;;;;;;;20.01;68.37;96259.69;7400431;19;20763;-73
2023/06/16 11:05:07;;;;;;;5.40;4.93;;;;;;;20.58;67.32;96275.59;7398784;19;20460;-73
2023/06/16 11:07:38;;;;;;;5.40;4.90;;;;;;;21.24;66.69;96283.59;7399642;19;20404;-72
2023/06/16 11:10:09;;;;;;;5.83;5.03;;;;;;;20.90;66.91;96267.31;7400071;19;20403;-73
2023/06/16 11:12:37;;;;;;;5.17;4.77;;;;;;;20.88;63.98;96276.94;7399523;19;20350;-73
2023/06/16 11:15:04;;;;;;;4.60;4.13;;;;;;;21.59;64.09;96278.31;7399320;19;20414;-73
2023/06/16 11:17:32;;;;;;;6.70;5.20;;;;;;;22.61;61.60;96279.09;7401847;19;20347;-73
2023/06/16 11:20:06;;;;;;;6.10;5.00;;;;;;;22.35;60.57;96291.38;7401196;19;20424;-73
2023/06/16 11:22:34;;;;;;;4.90;4.50;;;;;;;21.85;62.48;96291.13;7401224;19;20705;-73
2023/06/16 11:25:03;;;;;;;6.30;5.40;;;;;;;20.40;65.08;96287.53;7397521;19;20835;-73
2023/06/16 11:27:31;;;;;;;5.93;4.60;;;;;;;19.33;72.07;96309.22;7399745;19;20383;-73
2023/06/16 11:30:00;;;;;;;5.93;4.47;;;;;;;18.19;77.76;96320.41;7398444;19;20406;-73
2023/06/16 11:32:32;;;;;;;5.17;4.77;;;;;;;17.80;85.36;96322.88;7399229;19;20461;-73
2023/06/16 11:35:00;;;;;;;3.77;3.47;;;;;;;16.77;95.52;96312.06;7397125;19;20429;-73